createdAt,value
2019-04-30T00:01:33.275Z,15.25
2019-04-30T00:04:07.492Z,13.40
2019-04-30T00:06:39.544Z,14.65
2019-04-30T00:09:09.704Z,13.57
2019-04-30T00:11:41.769Z,13.35
2019-04-30T00:14:11.452Z,13.45
2019-04-30T00:16:41.188Z,16.95
2019-04-30T00:19:15.881Z,15.68
2019-04-30T00:21:42.247Z,16.93
2019-04-30T00:24:15.758Z,15.55
2019-04-30T00:26:46.808Z,13.73
2019-04-30T00:29:19.203Z,16.87
2019-04-30T00:31:47.166Z,18.00
2019-04-30T00:34:16.943Z,16.17
2019-04-30T00:36:46.651Z,17.62
2019-04-30T00:39:16.804Z,15.50
2019-04-30T00:41:47.560Z,14.63
2019-04-30T00:44:19.902Z,15.23
2019-04-30T00:46:48.565Z,14.67
2019-04-30T00:49:22.981Z,16.25
2019-04-30T00:51:54.118Z,16.07
2019-04-30T00:54:22.421Z,17.47
2019-04-30T00:56:52.087Z,14.28
2019-04-30T00:59:21.825Z,15.18
2019-04-30T01:01:56.351Z,16.60
2019-04-30T01:04:45.806Z,17.30
2019-04-30T01:07:16.046Z,17.42
2019-04-30T01:09:49.574Z,17.70
2019-04-30T01:12:24.553Z,17.07
2019-04-30T01:14:50.073Z,18.70
2019-04-30T01:17:19.696Z,19.05
2019-04-30T01:19:51.052Z,15.45
2019-04-30T01:22:27.737Z,15.83
2019-04-30T01:24:52.001Z,16.90
2019-04-30T01:27:21.712Z,17.00
2019-04-30T01:29:51.291Z,16.10
2019-04-30T01:32:22.763Z,17.65
2019-04-30T01:34:54.023Z,18.60
2019-04-30T01:37:28.641Z,17.27
2019-04-30T01:39:55.074Z,16.83
2019-04-30T01:42:24.784Z,19.62
2019-04-30T01:44:54.496Z,15.50
2019-04-30T01:47:27.594Z,15.32
2019-04-30T01:49:55.918Z,15.00
2019-04-30T01:52:29.225Z,16.27
2019-04-30T01:54:59.684Z,15.08
2019-04-30T01:57:36.943Z,15.78
2019-04-30T02:00:20.403Z,19.00
2019-04-30T02:02:50.113Z,16.20
2019-04-30T02:05:19.826Z,15.63
2019-04-30T02:07:50.620Z,15.80
2019-04-30T02:10:20.369Z,15.58
2019-04-30T02:12:52.009Z,18.27
2019-04-30T02:15:21.403Z,17.83
2019-04-30T02:17:51.139Z,15.75
2019-04-30T02:20:21.462Z,18.73
2019-04-30T02:22:51.275Z,16.42
2019-04-30T02:25:21.942Z,15.40
2019-04-30T02:27:51.720Z,17.37
2019-04-30T02:30:23.158Z,19.15
2019-04-30T02:32:52.864Z,18.87
2019-04-30T02:35:28.778Z,18.85
2019-04-30T02:38:15.011Z,19.87
2019-04-30T02:40:44.820Z,18.35
2019-04-30T02:43:14.559Z,17.32
2019-04-30T02:45:44.166Z,19.90
2019-04-30T02:48:13.875Z,18.67
2019-04-30T02:50:43.585Z,17.77
2019-04-30T02:53:51.155Z,20.48
2019-04-30T02:56:25.995Z,18.65
2019-04-30T02:58:53.890Z,19.75
2019-04-30T03:01:24.513Z,17.52
2019-04-30T03:03:55.161Z,20.15
2019-04-30T03:06:24.752Z,18.42
2019-04-30T03:08:56.177Z,17.98
2019-04-30T03:11:25.811Z,21.62
2019-04-30T03:13:55.495Z,21.10
2019-04-30T03:16:30.286Z,17.92
2019-04-30T03:18:59.682Z,18.02
2019-04-30T03:24:20.350Z,15.75
2019-04-30T03:26:50.187Z,17.80
2019-04-30T03:29:23.362Z,21.35
2019-04-30T03:31:52.566Z,23.67
2019-04-30T03:34:25.766Z,19.10
2019-04-30T03:36:55.748Z,22.50
2019-04-30T03:39:25.465Z,24.43
2019-04-30T03:41:55.201Z,23.30
2019-04-30T03:44:26.124Z,21.12
2019-04-30T03:46:55.894Z,20.17
2019-04-30T03:49:25.663Z,20.32
2019-04-30T03:51:56.420Z,19.82
2019-04-30T03:54:26.107Z,23.95
2019-04-30T03:56:57.355Z,23.50
2019-04-30T03:59:29.836Z,20.70
2019-04-30T04:02:12.949Z,19.87
2019-04-30T04:04:44.478Z,28.10
2019-04-30T04:07:32.214Z,19.80
2019-04-30T04:10:12.497Z,24.05
2019-04-30T04:12:42.178Z,19.42
2019-04-30T04:15:11.917Z,19.98
2019-04-30T04:17:41.648Z,21.85
2019-04-30T04:20:11.336Z,23.42
2019-04-30T04:22:41.050Z,22.52
2019-04-30T04:25:13.235Z,22.90
2019-04-30T04:27:42.105Z,24.07
2019-04-30T04:30:14.544Z,20.02
2019-04-30T04:32:44.167Z,21.57
2019-04-30T04:35:13.899Z,20.12
2019-04-30T04:37:43.616Z,17.62
2019-04-30T04:40:13.317Z,18.95
2019-04-30T04:42:43.028Z,24.30
2019-04-30T04:45:12.637Z,22.15
2019-04-30T04:47:42.345Z,23.60
2019-04-30T04:50:12.054Z,24.72
2019-04-30T04:52:41.766Z,18.82
2019-04-30T04:55:11.452Z,20.35
2019-04-30T04:57:41.289Z,21.55
2019-04-30T05:00:10.983Z,20.70
2019-04-30T05:02:42.245Z,22.95
2019-04-30T05:05:13.703Z,22.40
2019-04-30T05:07:43.403Z,22.60
2019-04-30T05:10:13.116Z,21.37
2019-04-30T05:12:44.751Z,23.30
2019-04-30T05:15:14.076Z,22.07
2019-04-30T05:17:45.526Z,19.12
2019-04-30T05:20:15.231Z,17.92
2019-04-30T05:22:46.668Z,18.80
2019-04-30T05:25:16.291Z,17.07
2019-04-30T05:27:45.903Z,18.57
2019-04-30T05:30:15.609Z,19.42
2019-04-30T05:32:45.290Z,20.25
2019-04-30T05:35:15.028Z,19.55
2019-04-30T05:37:46.539Z,16.87
2019-04-30T05:40:16.138Z,18.92
2019-04-30T05:42:45.876Z,17.10
2019-04-30T05:45:15.586Z,17.27
2019-04-30T05:47:45.296Z,15.35
2019-04-30T05:50:14.978Z,15.23
2019-04-30T05:52:44.717Z,16.17
2019-04-30T05:55:14.398Z,16.37
2019-04-30T05:57:55.637Z,22.52
2019-04-30T06:00:15.459Z,18.53
2019-04-30T06:02:45.196Z,16.37
2019-04-30T06:05:14.905Z,18.35
2019-04-30T06:07:44.615Z,17.25
2019-04-30T06:10:21.568Z,18.17
2019-04-30T06:13:02.059Z,14.60
2019-04-30T06:15:36.069Z,14.95
2019-04-30T06:18:11.548Z,15.63
2019-04-30T06:20:38.627Z,16.90
2019-04-30T06:23:09.570Z,14.58
2019-04-30T06:25:55.631Z,15.75
2019-04-30T06:28:11.788Z,13.97
2019-04-30T06:30:41.473Z,16.77
2019-04-30T06:33:11.820Z,18.17
2019-04-30T06:35:41.607Z,17.57
2019-04-30T06:38:11.344Z,17.37
2019-04-30T06:40:41.463Z,18.92
2019-04-30T06:43:11.147Z,15.75
2019-04-30T06:45:40.888Z,18.32
2019-04-30T06:48:10.567Z,17.00
2019-04-30T06:50:40.305Z,16.73
2019-04-30T06:53:10.014Z,15.70
2019-04-30T06:55:39.724Z,15.25
2019-04-30T06:58:15.156Z,15.72
2019-04-30T07:00:40.681Z,16.53
2019-04-30T07:03:10.394Z,14.33
2019-04-30T07:05:39.997Z,20.85
2019-04-30T07:08:12.109Z,15.40
2019-04-30T07:10:53.033Z,15.70
2019-04-30T07:13:18.772Z,13.63
2019-04-30T07:15:49.010Z,15.65
2019-04-30T07:18:19.039Z,14.07
2019-04-30T07:20:48.933Z,14.58
2019-04-30T07:23:18.878Z,13.65
2019-04-30T07:25:51.363Z,12.78
2019-04-30T07:28:21.849Z,12.27
2019-04-30T07:31:07.167Z,16.17
2019-04-30T07:33:22.557Z,14.57
2019-04-30T07:35:52.290Z,13.60
2019-04-30T07:38:22.981Z,14.43
2019-04-30T07:40:52.733Z,14.68
2019-04-30T07:43:22.443Z,13.85
2019-04-30T07:45:53.141Z,15.23
2019-04-30T07:48:26.401Z,14.50
2019-04-30T07:50:54.207Z,15.13
2019-04-30T07:53:23.921Z,14.15
2019-04-30T07:55:53.667Z,15.38
2019-04-30T07:58:23.371Z,15.10
2019-04-30T08:00:56.230Z,17.67
2019-04-30T08:03:42.431Z,13.07
2019-04-30T08:06:14.232Z,14.80
2019-04-30T08:08:43.722Z,13.13
2019-04-30T08:11:23.937Z,13.93
2019-04-30T08:13:45.272Z,12.85
2019-04-30T08:16:16.283Z,12.85
2019-04-30T08:18:46.033Z,15.83
2019-04-30T08:21:19.054Z,13.53
2019-04-30T08:23:48.799Z,12.73
2019-04-30T08:26:19.375Z,12.30
2019-04-30T08:28:49.045Z,13.62
2019-04-30T08:31:19.539Z,12.47
2019-04-30T08:33:49.411Z,15.43
2019-04-30T08:36:19.695Z,14.28
2019-04-30T08:38:49.654Z,13.25
2019-04-30T08:41:19.521Z,13.45
2019-04-30T08:43:49.781Z,13.55
2019-04-30T08:46:19.706Z,12.05
2019-04-30T08:48:51.726Z,12.47
2019-04-30T08:51:20.881Z,13.00
2019-04-30T08:53:50.780Z,14.00
2019-04-30T08:56:21.985Z,13.25
2019-04-30T08:58:54.677Z,13.78
2019-04-30T09:01:23.189Z,11.10
2019-04-30T09:03:52.904Z,11.60
2019-04-30T09:06:24.049Z,10.13
2019-04-30T09:08:54.161Z,13.58
2019-04-30T09:11:30.223Z,9.83
2019-04-30T09:13:56.096Z,10.53
2019-04-30T09:16:26.728Z,12.05
2019-04-30T09:21:26.812Z,14.95
2019-04-30T09:23:56.517Z,13.60
2019-04-30T09:26:26.227Z,19.40
2019-04-30T09:28:56.894Z,15.83
2019-04-30T09:31:26.542Z,21.25
2019-04-30T09:33:58.045Z,17.20
2019-04-30T09:36:29.437Z,15.27
2019-04-30T09:39:01.556Z,14.73
2019-04-30T09:41:32.794Z,16.95
2019-04-30T09:44:02.396Z,14.58
2019-04-30T09:46:32.100Z,19.55
2019-04-30T09:49:01.815Z,16.85
2019-04-30T09:51:31.975Z,24.23
2019-04-30T09:54:03.693Z,19.62
2019-04-30T09:56:33.296Z,15.83
2019-04-30T09:59:03.007Z,22.17
2019-04-30T10:01:33.252Z,23.85
2019-04-30T10:04:03.363Z,19.73
2019-04-30T10:06:39.681Z,22.65
2019-04-30T10:09:06.677Z,20.43
2019-04-30T10:11:55.433Z,25.32
2019-04-30T10:14:25.126Z,23.15
2019-04-30T10:16:59.601Z,19.82
2019-04-30T10:19:29.407Z,26.42
2019-04-30T10:21:59.171Z,25.85
2019-04-30T10:24:29.488Z,25.95
2019-04-30T10:26:59.538Z,23.67
2019-04-30T10:29:29.301Z,25.37
2019-04-30T10:31:59.010Z,29.02
2019-04-30T10:34:28.744Z,24.27
2019-04-30T10:36:59.598Z,25.85
2019-04-30T10:39:30.133Z,24.23
2019-04-30T10:42:00.780Z,27.42
2019-04-30T10:44:30.453Z,30.27
2019-04-30T10:47:00.164Z,23.22
2019-04-30T10:49:29.864Z,20.60
2019-04-30T10:52:01.161Z,24.75
2019-04-30T10:54:30.950Z,31.67
2019-04-30T10:57:01.638Z,24.30
2019-04-30T10:59:31.380Z,31.20
2019-04-30T11:02:01.063Z,29.35
2019-04-30T11:04:30.707Z,22.35
2019-04-30T11:07:02.108Z,20.92
2019-04-30T11:09:32.726Z,19.07
2019-04-30T11:12:03.156Z,21.33
2019-04-30T11:14:32.991Z,20.00
2019-04-30T11:17:02.891Z,17.48
2019-04-30T11:19:33.960Z,16.52
2019-04-30T11:22:03.933Z,18.98
2019-04-30T11:24:38.025Z,19.48
2019-04-30T11:27:05.233Z,17.92
2019-04-30T11:29:36.249Z,14.75
2019-04-30T11:32:07.887Z,18.23
2019-04-30T11:34:37.763Z,22.67
2019-04-30T11:37:07.469Z,16.55
2019-04-30T11:39:37.111Z,23.22
2019-04-30T11:42:06.792Z,21.97
2019-04-30T11:44:40.039Z,30.77
2019-04-30T11:47:11.024Z,21.40
2019-04-30T11:49:40.731Z,17.23
2019-04-30T11:52:10.448Z,20.00
2019-04-30T11:54:49.184Z,23.05
2019-04-30T11:57:11.606Z,21.23
2019-04-30T11:59:41.212Z,17.92
2019-04-30T12:02:12.437Z,21.68
2019-04-30T12:04:42.142Z,22.93
2019-04-30T12:07:18.945Z,21.77
2019-04-30T12:09:53.137Z,17.17
2019-04-30T12:12:23.384Z,20.97
2019-04-30T12:14:53.047Z,20.27
2019-04-30T12:17:22.906Z,21.50
2019-04-30T12:19:52.616Z,20.72
2019-04-30T12:22:22.299Z,18.90
2019-04-30T12:25:02.215Z,20.25
2019-04-30T12:27:23.384Z,20.55
2019-04-30T12:29:53.094Z,17.52
2019-04-30T12:32:23.747Z,20.17
2019-04-30T12:34:54.466Z,16.70
2019-04-30T12:37:24.142Z,22.62
2019-04-30T12:39:53.879Z,20.30
2019-04-30T12:42:23.486Z,18.98
2019-04-30T12:44:53.198Z,17.67
2019-04-30T12:47:23.199Z,17.98
2019-04-30T12:49:54.435Z,15.55
2019-04-30T12:52:25.711Z,24.23
2019-04-30T12:55:15.503Z,26.73
2019-04-30T12:57:58.151Z,22.20
2019-04-30T13:00:19.614Z,19.80
2019-04-30T13:02:49.404Z,17.52
2019-04-30T13:05:19.607Z,20.52
2019-04-30T13:07:50.351Z,17.35
2019-04-30T13:10:20.933Z,18.87
2019-04-30T13:12:51.831Z,24.02
2019-04-30T13:15:21.748Z,20.80
2019-04-30T13:17:51.482Z,18.92
2019-04-30T13:20:23.961Z,22.13
2019-04-30T13:22:52.539Z,20.23
2019-04-30T13:25:29.915Z,20.77
2019-04-30T13:27:55.007Z,16.80
2019-04-30T13:30:26.276Z,18.40
2019-04-30T13:32:59.294Z,18.40
2019-04-30T13:35:29.178Z,19.35
2019-04-30T13:38:16.579Z,15.68
2019-04-30T13:41:06.387Z,17.95
2019-04-30T13:43:56.065Z,21.95
2019-04-30T13:46:25.879Z,19.23
2019-04-30T13:48:55.585Z,17.85
2019-04-30T13:51:25.295Z,18.17
2019-04-30T13:53:55.005Z,16.97
2019-04-30T13:56:24.722Z,19.62
2019-04-30T13:58:54.425Z,17.52
2019-04-30T14:01:25.838Z,19.87
2019-04-30T14:04:09.206Z,16.62
2019-04-30T14:06:43.425Z,19.57
2019-04-30T14:09:27.768Z,16.87
2019-04-30T14:11:57.459Z,18.55
2019-04-30T14:14:29.573Z,19.82
2019-04-30T14:17:01.238Z,16.50
2019-04-30T14:19:29.670Z,18.63
2019-04-30T14:21:59.371Z,18.30
2019-04-30T14:24:30.795Z,16.00
2019-04-30T14:27:02.291Z,18.65
2019-04-30T14:29:32.010Z,17.82
2019-04-30T14:32:01.720Z,18.50
2019-04-30T14:34:31.430Z,20.35
2019-04-30T14:37:01.138Z,16.87
2019-04-30T14:39:30.980Z,18.00
2019-04-30T14:42:01.453Z,17.25
2019-04-30T14:44:33.946Z,17.85
2019-04-30T14:47:05.874Z,17.62
2019-04-30T14:50:01.575Z,23.77
2019-04-30T14:52:25.106Z,20.05
2019-04-30T14:55:08.907Z,16.20
2019-04-30T14:57:43.037Z,19.90
2019-04-30T15:00:31.985Z,15.80
2019-04-30T15:03:10.475Z,14.90
2019-04-30T15:05:48.465Z,23.30
2019-04-30T15:08:11.518Z,20.43
2019-04-30T15:10:41.178Z,21.10
2019-04-30T15:13:12.608Z,18.07
2019-04-30T15:15:42.234Z,19.65
2019-04-30T15:18:11.971Z,19.37
2019-04-30T15:20:42.619Z,20.88
2019-04-30T15:23:19.038Z,18.20
2019-04-30T15:25:48.647Z,21.77
2019-04-30T15:28:18.603Z,24.92
2019-04-30T15:30:48.830Z,22.73
2019-04-30T15:33:22.248Z,20.40
2019-04-30T15:35:51.923Z,23.65
2019-04-30T15:38:24.246Z,19.87
2019-04-30T15:40:54.005Z,20.88
2019-04-30T15:43:23.720Z,18.55
2019-04-30T15:45:53.528Z,18.37
2019-04-30T15:48:24.847Z,19.07
2019-04-30T15:50:55.438Z,16.27
2019-04-30T15:53:25.322Z,19.55
2019-04-30T15:55:55.010Z,19.07
2019-04-30T15:58:26.250Z,17.95
2019-04-30T16:00:56.088Z,22.02
2019-04-30T16:03:36.301Z,20.60
2019-04-30T16:06:06.058Z,29.60
2019-04-30T16:08:38.895Z,21.95
2019-04-30T16:11:13.377Z,24.75
2019-04-30T16:14:01.095Z,21.50
2019-04-30T16:16:32.316Z,19.35
2019-04-30T16:19:02.078Z,27.27
2019-04-30T16:21:31.695Z,24.47
2019-04-30T16:24:01.345Z,42.88
2019-04-30T16:26:31.052Z,21.48
2019-04-30T16:29:00.765Z,20.45
2019-04-30T16:31:30.501Z,18.55
2019-04-30T16:34:00.183Z,22.07
2019-04-30T16:36:29.919Z,16.57
2019-04-30T16:38:59.603Z,20.32
2019-04-30T16:41:31.817Z,20.23
2019-04-30T16:44:00.698Z,22.50
2019-04-30T16:46:31.150Z,19.05
2019-04-30T16:49:01.003Z,20.80
2019-04-30T16:51:30.714Z,22.05
2019-04-30T16:54:00.552Z,19.70
2019-04-30T16:56:30.243Z,20.23
2019-04-30T16:59:00.383Z,19.48
2019-04-30T17:01:32.155Z,19.52
2019-04-30T17:04:03.330Z,17.25
2019-04-30T17:06:35.918Z,20.32
2019-04-30T17:09:08.423Z,19.40
2019-04-30T17:11:55.815Z,20.23
2019-04-30T17:14:25.455Z,23.92
2019-04-30T17:16:55.183Z,17.05
2019-04-30T17:19:24.890Z,16.62
2019-04-30T17:21:54.579Z,23.90
2019-04-30T17:24:24.187Z,18.85
2019-04-30T17:26:53.921Z,16.93
2019-04-30T17:29:23.603Z,20.20
2019-04-30T17:31:53.246Z,16.20
2019-04-30T17:34:22.950Z,17.87
2019-04-30T17:36:52.630Z,18.27
2019-04-30T17:39:23.334Z,20.82
2019-04-30T17:41:52.976Z,19.95
2019-04-30T17:44:22.696Z,31.52
2019-04-30T17:46:54.219Z,17.50
2019-04-30T17:49:23.947Z,21.10
2019-04-30T17:51:53.659Z,21.52
2019-04-30T17:54:23.393Z,21.77
2019-04-30T17:56:52.979Z,21.27
2019-04-30T17:59:22.711Z,18.00
2019-04-30T18:01:53.957Z,20.27
2019-04-30T18:04:23.748Z,21.20
2019-04-30T18:06:53.479Z,24.43
2019-04-30T18:09:23.473Z,22.50
2019-04-30T18:11:53.211Z,18.55
2019-04-30T18:14:22.917Z,19.45
2019-04-30T18:16:52.603Z,21.23
2019-04-30T18:19:30.124Z,21.85
2019-04-30T18:22:01.338Z,21.42
2019-04-30T18:27:06.929Z,17.42
2019-04-30T18:29:36.641Z,21.10
2019-04-30T18:32:06.350Z,19.50
2019-04-30T18:34:36.061Z,18.23
2019-04-30T18:37:18.924Z,17.95
2019-04-30T18:39:48.526Z,18.73
2019-04-30T18:42:19.369Z,19.35
2019-04-30T18:44:49.237Z,19.75
2019-04-30T18:47:18.967Z,19.70
2019-04-30T18:49:49.597Z,22.32
2019-04-30T18:52:19.499Z,21.17
2019-04-30T18:54:49.590Z,23.85
2019-04-30T18:57:19.323Z,21.90
2019-04-30T18:59:50.032Z,21.62
2019-04-30T19:02:21.454Z,23.07
2019-04-30T19:04:51.219Z,22.67
2019-04-30T19:07:22.466Z,21.33
2019-04-30T19:10:10.300Z,26.62
2019-04-30T19:12:50.561Z,21.95
2019-04-30T19:16:01.820Z,26.70
2019-04-30T19:18:12.479Z,24.52
2019-04-30T19:20:43.751Z,22.60
2019-04-30T19:23:13.461Z,20.40
2019-04-30T19:25:43.174Z,21.68
2019-04-30T19:28:14.584Z,21.35
2019-04-30T19:30:55.085Z,21.37
2019-04-30T19:33:16.602Z,18.82
2019-04-30T19:35:46.315Z,20.12
2019-04-30T19:38:16.023Z,19.23
2019-04-30T19:40:45.710Z,19.90
2019-04-30T19:43:16.598Z,24.57
2019-04-30T19:45:46.382Z,19.92
2019-04-30T19:48:16.283Z,20.17
2019-04-30T19:50:46.012Z,22.30
2019-04-30T19:53:15.691Z,22.70
2019-04-30T19:55:46.325Z,24.12
2019-04-30T19:58:27.736Z,21.73
2019-04-30T20:00:47.306Z,28.80
2019-04-30T20:03:16.991Z,20.82
2019-04-30T20:05:46.729Z,29.10
2019-04-30T20:08:19.646Z,25.30
2019-04-30T20:10:49.479Z,23.80
2019-04-30T20:13:31.246Z,21.27
2019-04-30T20:15:50.278Z,23.67
2019-04-30T20:18:19.988Z,24.95
2019-04-30T20:20:52.185Z,24.40
2019-04-30T20:25:50.757Z,22.15
2019-04-30T20:28:20.439Z,25.90
2019-04-30T20:30:50.175Z,23.07
2019-04-30T20:33:19.859Z,24.65
2019-04-30T20:35:49.572Z,24.90
2019-04-30T20:38:33.922Z,22.00
2019-04-30T20:41:09.113Z,22.62
2019-04-30T20:43:39.394Z,25.35
2019-04-30T20:46:08.629Z,21.67
2019-04-30T20:48:41.084Z,23.00
2019-04-30T20:51:09.790Z,21.83
2019-04-30T20:53:41.029Z,21.68
2019-04-30T20:56:11.828Z,22.80
2019-04-30T20:58:54.562Z,23.92
2019-04-30T21:01:12.886Z,23.47
2019-04-30T21:03:42.622Z,23.95
2019-04-30T21:06:12.333Z,23.32
2019-04-30T21:08:42.016Z,23.00
2019-04-30T21:11:13.482Z,24.00
2019-04-30T21:13:43.075Z,23.23
2019-04-30T21:16:12.810Z,24.77
2019-04-30T21:18:43.468Z,23.65
2019-04-30T21:21:13.152Z,24.65
2019-04-30T21:23:42.836Z,22.15
2019-04-30T21:26:14.308Z,25.17
2019-04-30T21:28:45.048Z,24.70
2019-04-30T21:31:32.881Z,24.00
2019-04-30T21:34:04.306Z,24.67
2019-04-30T21:36:34.018Z,26.05
2019-04-30T21:39:04.856Z,23.45
2019-04-30T21:41:35.775Z,22.85
2019-04-30T21:44:05.503Z,23.73
2019-04-30T21:46:37.098Z,26.50
2019-04-30T21:49:08.743Z,30.30
2019-04-30T21:51:39.975Z,21.95
2019-04-30T21:54:10.924Z,31.63
2019-04-30T21:56:40.402Z,29.32
2019-04-30T21:59:10.139Z,25.90
2019-04-30T22:01:40.055Z,26.90
2019-04-30T22:04:10.757Z,25.62
2019-04-30T22:06:40.397Z,23.92
2019-04-30T22:09:10.720Z,32.33
2019-04-30T22:11:41.966Z,31.20
2019-04-30T22:14:13.365Z,23.85
2019-04-30T22:16:43.029Z,26.77
2019-04-30T22:19:12.735Z,30.23
2019-04-30T22:21:42.421Z,25.43
2019-04-30T22:24:12.155Z,26.87
2019-04-30T22:26:41.840Z,26.75
2019-04-30T22:29:11.576Z,28.23
2019-04-30T22:31:41.286Z,23.40
2019-04-30T22:34:10.996Z,25.32
2019-04-30T22:36:42.241Z,28.55
2019-04-30T22:39:16.535Z,26.42
2019-04-30T22:41:46.274Z,24.60
2019-04-30T22:44:17.314Z,26.10
2019-04-30T22:46:46.994Z,29.23
2019-04-30T22:49:17.695Z,23.62
2019-04-30T22:51:47.367Z,23.07
2019-04-30T22:54:17.047Z,25.43
2019-04-30T22:56:46.783Z,26.33
2019-04-30T22:59:16.468Z,21.37
2019-04-30T23:01:59.926Z,26.23
2019-04-30T23:04:40.185Z,23.70
2019-04-30T23:07:10.884Z,27.77
2019-04-30T23:09:40.629Z,27.07
2019-04-30T23:12:10.339Z,26.48
2019-04-30T23:14:40.047Z,21.97
2019-04-30T23:17:09.733Z,27.27
2019-04-30T23:19:39.468Z,24.50
2019-04-30T23:22:09.151Z,23.27
2019-04-30T23:24:39.904Z,24.37
2019-04-30T23:27:09.519Z,24.02
2019-04-30T23:29:39.230Z,23.92
2019-04-30T23:32:08.919Z,25.43
2019-04-30T23:34:38.648Z,29.20
2019-04-30T23:37:09.355Z,28.17
2019-04-30T23:39:39.119Z,30.00
2019-04-30T23:42:08.882Z,26.93
2019-04-30T23:44:38.593Z,24.15
2019-04-30T23:47:08.326Z,27.45
2019-04-30T23:49:39.831Z,22.05
2019-04-30T23:52:09.591Z,25.48
2019-04-30T23:54:39.300Z,26.77
2019-04-30T23:57:08.987Z,25.25
2019-04-30T23:59:38.594Z,29.18
